createdAt,value
2019-04-26T00:03:53.121Z,14.40
2019-04-26T00:08:25.023Z,15.17
2019-04-26T00:13:00.216Z,14.17
2019-04-26T00:17:40.906Z,14.40
2019-04-26T00:22:12.982Z,13.77
2019-04-26T00:26:46.699Z,14.57
2019-04-26T00:31:21.395Z,14.53
2019-04-26T00:35:57.692Z,13.53
2019-04-26T00:40:28.480Z,14.87
2019-04-26T00:45:00.605Z,14.37
2019-04-26T00:49:43.458Z,14.57
2019-04-26T00:54:08.023Z,14.63
2019-04-26T00:58:40.509Z,14.83
2019-04-26T01:03:12.480Z,15.60
2019-04-26T01:07:44.582Z,14.60
2019-04-26T01:12:35.716Z,15.00
2019-04-26T01:17:06.138Z,15.80
2019-04-26T01:21:39.701Z,16.07
2019-04-26T01:26:17.717Z,15.10
2019-04-26T01:30:48.532Z,15.57
2019-04-26T01:35:20.320Z,15.50
2019-04-26T01:39:55.951Z,15.43
2019-04-26T01:44:40.959Z,15.30
2019-04-26T01:49:15.699Z,15.87
2019-04-26T01:53:47.552Z,16.10
2019-04-26T01:58:19.340Z,15.47
2019-04-26T02:03:00.171Z,16.43
2019-04-26T02:07:49.154Z,16.17
2019-04-26T02:12:19.076Z,16.17
2019-04-26T02:16:50.081Z,16.23
2019-04-26T02:21:30.232Z,15.67
2019-04-26T02:26:00.743Z,16.27
2019-04-26T02:30:33.282Z,16.70
2019-04-26T02:35:04.384Z,15.97
2019-04-26T02:39:38.164Z,16.13
2019-04-26T02:44:08.946Z,17.80
2019-04-26T02:49:21.957Z,16.60
2019-04-26T02:54:03.983Z,17.63
2019-04-26T02:59:00.195Z,17.47
2019-04-26T03:03:32.199Z,16.30
2019-04-26T03:08:22.851Z,17.10
2019-04-26T03:12:57.888Z,17.17
2019-04-26T03:17:39.797Z,17.53
2019-04-26T03:22:15.647Z,18.17
2019-04-26T03:27:08.441Z,17.87
2019-04-26T03:31:53.326Z,16.87
2019-04-26T03:36:40.587Z,17.77
2019-04-26T03:41:20.891Z,18.27
2019-04-26T03:45:58.485Z,17.77
2019-04-26T03:50:39.034Z,16.87
2019-04-26T03:55:08.240Z,16.67
2019-04-26T04:00:23.991Z,17.80
2019-04-26T04:05:00.687Z,17.27
2019-04-26T04:09:32.906Z,16.93
2019-04-26T04:14:08.023Z,17.23
2019-04-26T04:18:41.758Z,17.60
2019-04-26T04:23:19.070Z,16.40
2019-04-26T04:27:58.309Z,16.80
2019-04-26T04:32:36.023Z,17.27
2019-04-26T04:37:07.843Z,15.80
2019-04-26T04:41:56.717Z,16.90
2019-04-26T04:46:41.762Z,15.40
2019-04-26T04:51:27.336Z,16.97
2019-04-26T04:56:18.052Z,17.30
2019-04-26T05:01:00.333Z,17.73
2019-04-26T05:06:07.204Z,17.73
2019-04-26T05:10:28.756Z,17.33
2019-04-26T05:15:37.582Z,16.87
2019-04-26T05:20:27.580Z,17.73
2019-04-26T05:25:08.266Z,15.97
2019-04-26T05:29:48.324Z,15.13
2019-04-26T05:34:48.953Z,16.55
2019-04-26T05:39:47.799Z,16.67
2019-04-26T05:44:27.928Z,16.37
2019-04-26T05:54:19.480Z,17.00
2019-04-26T05:59:01.452Z,17.57
2019-04-26T06:03:52.249Z,16.77
2019-04-26T06:08:45.387Z,17.77
2019-04-26T06:13:58.144Z,16.27
2019-04-26T06:18:53.059Z,16.57
2019-04-26T06:23:42.860Z,14.53
2019-04-26T06:28:25.640Z,15.13
2019-04-26T06:33:12.671Z,15.87
2019-04-26T06:37:55.360Z,17.13
2019-04-26T06:42:32.721Z,16.77
2019-04-26T06:47:16.196Z,16.57
2019-04-26T06:51:51.881Z,16.50
2019-04-26T06:56:36.104Z,15.33
2019-04-26T07:01:31.776Z,13.70
2019-04-26T07:06:10.286Z,14.70
2019-04-26T07:10:53.535Z,13.07
2019-04-26T07:15:44.220Z,14.70
2019-04-26T07:20:41.083Z,13.80
2019-04-26T07:25:51.322Z,13.07
2019-04-26T07:30:33.127Z,12.60
2019-04-26T07:35:13.860Z,12.33
2019-04-26T07:40:01.441Z,11.87
2019-04-26T07:44:45.720Z,14.13
2019-04-26T07:49:57.040Z,10.43
2019-04-26T07:54:38.557Z,12.00
2019-04-26T07:59:37.091Z,12.03
2019-04-26T08:04:11.520Z,11.20
2019-04-26T08:08:43.572Z,11.00
2019-04-26T08:13:21.152Z,10.93
2019-04-26T08:22:45.576Z,11.33
2019-04-26T08:27:39.661Z,11.37
2019-04-26T08:32:16.181Z,10.87
2019-04-26T08:36:57.390Z,9.87
2019-04-26T08:41:29.303Z,10.40
2019-04-26T08:46:20.866Z,9.20
2019-04-26T08:55:30.252Z,9.07
2019-04-26T09:00:07.060Z,8.90
2019-04-26T09:04:54.849Z,9.37
2019-04-26T09:09:32.298Z,9.53
2019-04-26T09:14:05.723Z,9.37
2019-04-26T09:18:43.722Z,8.57
2019-04-26T09:23:39.334Z,8.80
2019-04-26T09:28:05.592Z,9.43
2019-04-26T09:32:46.058Z,8.60
2019-04-26T09:37:19.676Z,8.27
2019-04-26T09:41:51.394Z,7.80
2019-04-26T09:46:25.710Z,7.93
2019-04-26T09:50:58.219Z,8.13
2019-04-26T09:55:35.698Z,8.63
2019-04-26T10:00:04.450Z,7.73
2019-04-26T10:04:37.212Z,7.33
2019-04-26T10:09:11.574Z,7.20
2019-04-26T10:14:02.974Z,7.73
2019-04-26T10:18:36.933Z,7.07
2019-04-26T10:23:09.065Z,7.87
2019-04-26T10:27:42.528Z,7.03
2019-04-26T10:32:14.029Z,7.70
2019-04-26T10:36:45.496Z,7.13
2019-04-26T10:41:17.031Z,6.97
2019-04-26T10:45:53.657Z,7.20
2019-04-26T10:50:23.729Z,6.67
2019-04-26T10:55:03.197Z,6.80
2019-04-26T10:59:46.100Z,5.80
2019-04-26T11:04:28.696Z,5.30
2019-04-26T11:09:00.566Z,5.23
2019-04-26T11:13:34.966Z,5.97
2019-04-26T11:18:05.296Z,5.00
2019-04-26T11:22:37.630Z,5.13
2019-04-26T11:27:11.353Z,5.03
2019-04-26T11:31:43.505Z,5.37
2019-04-26T11:36:16.310Z,5.27
2019-04-26T11:40:58.454Z,5.97
2019-04-26T11:45:24.789Z,5.37
2019-04-26T11:49:58.426Z,5.60
2019-04-26T11:54:31.200Z,5.10
2019-04-26T11:59:03.240Z,5.63
2019-04-26T12:03:35.859Z,5.00
2019-04-26T12:08:17.420Z,4.87
2019-04-26T12:12:51.807Z,4.00
2019-04-26T12:17:27.126Z,3.90
2019-04-26T12:22:17.991Z,4.33
2019-04-26T12:26:51.991Z,4.20
2019-04-26T12:31:21.073Z,4.20
2019-04-26T12:35:56.819Z,4.20
2019-04-26T12:40:25.981Z,4.67
2019-04-26T12:45:06.404Z,4.20
2019-04-26T12:49:38.167Z,4.73
2019-04-26T12:54:09.967Z,4.30
2019-04-26T12:58:45.616Z,4.03
2019-04-26T13:03:20.607Z,4.33
2019-04-26T13:07:52.605Z,4.57
2019-04-26T13:12:43.582Z,4.20
2019-04-26T13:17:20.585Z,4.87
2019-04-26T13:21:52.557Z,4.20
2019-04-26T13:26:25.521Z,4.10
2019-04-26T13:30:57.044Z,5.13
2019-04-26T13:35:28.793Z,5.27
2019-04-26T13:40:01.355Z,5.20
2019-04-26T13:44:51.558Z,4.30
2019-04-26T13:49:41.669Z,5.00
2019-04-26T13:54:16.599Z,4.70
2019-04-26T13:58:47.358Z,4.20
2019-04-26T14:03:18.667Z,5.63
2019-04-26T14:07:49.963Z,5.93
2019-04-26T14:12:21.291Z,5.10
2019-04-26T14:16:58.650Z,5.33
2019-04-26T14:21:33.303Z,5.00
2019-04-26T14:26:11.280Z,5.70
2019-04-26T14:30:43.271Z,5.80
2019-04-26T14:35:15.747Z,4.97
2019-04-26T14:39:51.238Z,5.83
2019-04-26T14:49:01.322Z,5.40
2019-04-26T14:53:27.404Z,5.33
2019-04-26T14:57:58.152Z,5.27
2019-04-26T15:02:49.872Z,6.23
2019-04-26T15:07:22.262Z,5.47
2019-04-26T15:11:59.655Z,5.83
2019-04-26T15:16:46.856Z,5.60
2019-04-26T15:21:19.458Z,4.87
2019-04-26T15:25:52.696Z,5.47
2019-04-26T15:30:26.725Z,5.43
2019-04-26T15:34:58.787Z,5.37
2019-04-26T15:39:33.024Z,5.27
2019-04-26T15:44:11.936Z,5.20
2019-04-26T15:48:54.616Z,5.90
2019-04-26T15:57:53.153Z,5.47
2019-04-26T16:02:26.369Z,5.00
2019-04-26T16:06:58.706Z,5.53
2019-04-26T16:11:33.550Z,5.53
2019-04-26T16:16:06.006Z,5.73
2019-04-26T16:20:42.272Z,5.13
2019-04-26T16:25:15.453Z,5.57
2019-04-26T16:30:28.410Z,5.53
2019-04-26T16:35:02.904Z,5.50
2019-04-26T16:39:38.951Z,5.43
2019-04-26T16:44:10.296Z,5.33
2019-04-26T16:48:42.604Z,5.27
2019-04-26T16:53:36.255Z,5.37
2019-04-26T16:57:54.772Z,5.13
2019-04-26T17:02:26.141Z,5.50
2019-04-26T17:07:01.706Z,5.50
2019-04-26T17:11:30.221Z,6.03
2019-04-26T17:16:02.462Z,5.83
2019-04-26T17:20:36.502Z,5.67
2019-04-26T17:25:12.548Z,5.43
2019-04-26T17:30:05.891Z,5.97
2019-04-26T17:34:40.457Z,5.67
2019-04-26T17:39:16.815Z,5.70
2019-04-26T17:43:48.265Z,6.37
2019-04-26T17:48:18.514Z,6.17
2019-04-26T17:52:49.192Z,6.37
2019-04-26T17:57:32.124Z,7.13
2019-04-26T18:02:00.855Z,8.10
2019-04-26T18:06:29.903Z,6.50
2019-04-26T18:11:02.312Z,7.17
2019-04-26T18:15:35.578Z,7.50
2019-04-26T18:20:26.543Z,7.57
2019-04-26T18:24:57.584Z,6.90
2019-04-26T18:29:30.458Z,6.50
2019-04-26T18:34:04.023Z,6.73
2019-04-26T18:38:35.116Z,7.33
2019-04-26T18:43:06.211Z,7.77
2019-04-26T18:47:43.709Z,7.17
2019-04-26T18:52:14.160Z,7.33
2019-04-26T18:56:48.339Z,7.50
2019-04-26T19:01:22.343Z,7.50
2019-04-26T19:05:54.164Z,6.77
2019-04-26T19:10:29.356Z,9.20
2019-04-26T19:15:11.463Z,7.63
2019-04-26T19:20:08.520Z,8.07
2019-04-26T19:24:42.289Z,8.00
2019-04-26T19:29:18.145Z,8.53
2019-04-26T19:33:51.710Z,7.67
2019-04-26T19:38:22.892Z,8.13
2019-04-26T19:43:03.179Z,7.80
2019-04-26T19:47:31.174Z,7.53
2019-04-26T19:52:19.970Z,8.17
2019-04-26T19:57:11.140Z,8.13
2019-04-26T20:01:46.115Z,9.13
2019-04-26T20:06:18.754Z,8.87
2019-04-26T20:15:27.973Z,8.17
2019-04-26T20:19:56.122Z,7.60
2019-04-26T20:24:28.582Z,8.20
2019-04-26T20:29:00.250Z,8.80
2019-04-26T20:33:35.035Z,7.83
2019-04-26T20:38:05.697Z,8.87
2019-04-26T20:47:03.390Z,8.63
2019-04-26T20:51:35.352Z,9.57
2019-04-26T20:56:09.830Z,9.37
2019-04-26T21:00:53.547Z,8.50
2019-04-26T21:05:15.863Z,9.00
2019-04-26T21:09:47.539Z,9.50
2019-04-26T21:14:21.343Z,9.80
2019-04-26T21:18:55.632Z,8.70
2019-04-26T21:23:27.721Z,8.47
2019-04-26T21:32:59.074Z,8.97
2019-04-26T21:37:36.491Z,9.10
2019-04-26T21:42:08.586Z,8.67
2019-04-26T21:46:39.541Z,8.83
2019-04-26T21:51:14.546Z,8.47
2019-04-26T21:55:44.060Z,9.07
2019-04-26T22:00:16.378Z,9.70
2019-04-26T22:04:50.894Z,9.17
2019-04-26T22:09:36.830Z,9.40
2019-04-26T22:14:20.177Z,9.47
2019-04-26T22:18:57.722Z,9.17
2019-04-26T22:23:47.593Z,9.43
2019-04-26T22:28:20.215Z,9.33
2019-04-26T22:32:58.082Z,9.17
2019-04-26T22:37:30.085Z,9.07
2019-04-26T22:42:02.695Z,10.03
2019-04-26T22:46:53.871Z,9.73
2019-04-26T22:51:33.636Z,9.97
2019-04-26T22:56:01.386Z,9.30
2019-04-26T23:00:33.209Z,10.10
2019-04-26T23:05:05.833Z,10.03
2019-04-26T23:09:38.955Z,10.10
2019-04-26T23:14:18.828Z,10.43
2019-04-26T23:19:08.443Z,9.97
2019-04-26T23:23:42.767Z,11.17
2019-04-26T23:28:14.655Z,11.37
2019-04-26T23:32:48.558Z,11.57
2019-04-26T23:37:24.241Z,11.17
2019-04-26T23:41:55.732Z,11.07
2019-04-26T23:46:26.879Z,12.50
2019-04-26T23:50:59.957Z,10.77
2019-04-26T23:55:31.719Z,12.03
